createdAt,value
2018-05-11T00:01:32.311Z,9.90
2018-05-11T00:04:00.589Z,9.73
2018-05-11T00:06:28.878Z,12.40
2018-05-11T00:08:57.158Z,16.20
2018-05-11T00:11:24.678Z,14.50
2018-05-11T00:13:52.194Z,9.17
2018-05-11T00:16:19.706Z,9.80
2018-05-11T00:18:48.010Z,16.50
2018-05-11T00:21:15.526Z,10.10
2018-05-11T00:23:43.038Z,9.73
2018-05-11T00:26:10.554Z,9.80
2018-05-11T00:28:38.070Z,10.20
2018-05-11T00:31:05.587Z,9.80
2018-05-11T00:33:33.870Z,9.73
2018-05-11T00:36:02.161Z,10.23
2018-05-11T00:38:29.669Z,9.03
2018-05-11T00:40:57.178Z,9.43
2018-05-11T00:43:24.705Z,9.40
2018-05-11T00:45:52.221Z,8.90
2018-05-11T00:48:19.739Z,10.03
2018-05-11T00:50:48.025Z,9.40
2018-05-11T00:53:16.330Z,9.30
2018-05-11T00:55:50.708Z,10.03
2018-05-11T00:58:19.015Z,9.90
2018-05-11T01:00:46.545Z,10.07
2018-05-11T01:03:14.826Z,9.43
2018-05-11T01:05:43.109Z,9.33
2018-05-11T01:08:11.389Z,9.57
2018-05-11T01:10:39.665Z,10.20
2018-05-11T01:13:07.185Z,10.47
2018-05-11T01:15:34.718Z,10.20
2018-05-11T01:18:02.235Z,10.67
2018-05-11T01:20:30.510Z,10.10
2018-05-11T01:22:58.805Z,10.70
2018-05-11T01:25:26.321Z,10.00
2018-05-11T01:27:53.854Z,10.13
2018-05-11T01:30:21.374Z,10.10
2018-05-11T01:32:48.930Z,10.23
2018-05-11T01:35:17.207Z,9.90
2018-05-11T01:37:44.730Z,10.37
2018-05-11T01:40:12.255Z,10.47
2018-05-11T01:42:39.777Z,10.37
2018-05-11T01:45:08.059Z,8.57
2018-05-11T01:47:35.581Z,9.73
2018-05-11T01:50:03.109Z,9.90
2018-05-11T01:52:30.628Z,9.50
2018-05-11T01:54:58.917Z,10.00
2018-05-11T01:57:26.433Z,9.43
2018-05-11T01:59:54.741Z,10.00
2018-05-11T02:02:23.017Z,8.87
2018-05-11T02:04:51.296Z,8.83
2018-05-11T02:07:19.581Z,8.83
2018-05-11T02:09:47.097Z,8.73
2018-05-11T02:12:14.604Z,8.73
2018-05-11T02:14:42.110Z,8.93
2018-05-11T02:17:09.628Z,9.43
2018-05-11T02:19:37.129Z,8.90
2018-05-11T02:22:04.641Z,8.10
2018-05-11T02:24:32.145Z,8.80
2018-05-11T02:26:59.662Z,8.50
2018-05-11T02:29:27.167Z,9.00
2018-05-11T02:31:54.674Z,8.33
2018-05-11T02:34:22.182Z,9.50
2018-05-11T02:36:49.701Z,9.30
2018-05-11T02:39:17.219Z,9.43
2018-05-11T02:41:45.518Z,8.90
2018-05-11T02:44:13.046Z,9.30
2018-05-11T02:46:40.567Z,9.53
2018-05-11T02:49:08.073Z,9.80
2018-05-11T02:51:36.366Z,10.07
2018-05-11T02:54:04.650Z,9.50
2018-05-11T02:56:32.181Z,10.10
2018-05-11T02:59:00.469Z,10.17
2018-05-11T03:01:28.765Z,9.90
2018-05-11T03:03:56.314Z,9.40
2018-05-11T03:06:24.605Z,10.03
2018-05-11T03:08:52.118Z,10.13
2018-05-11T03:11:19.657Z,10.20
2018-05-11T03:13:47.174Z,10.80
2018-05-11T03:16:14.685Z,9.67
2018-05-11T03:18:42.314Z,10.77
2018-05-11T03:21:09.757Z,9.50
2018-05-11T03:23:37.266Z,9.73
2018-05-11T03:26:04.797Z,9.53
2018-05-11T03:28:32.310Z,10.10
2018-05-11T03:31:00.594Z,10.53
2018-05-11T03:33:28.117Z,9.60
2018-05-11T03:35:55.634Z,9.70
2018-05-11T03:38:23.155Z,10.50
2018-05-11T03:40:50.689Z,10.10
2018-05-11T03:43:18.205Z,10.03
2018-05-11T03:45:45.727Z,10.43
2018-05-11T03:48:13.250Z,10.93
2018-05-11T03:50:40.770Z,10.80
2018-05-11T03:53:09.063Z,11.23
2018-05-11T03:55:36.580Z,11.53
2018-05-11T03:58:04.870Z,11.80
2018-05-11T04:00:33.149Z,10.97
2018-05-11T04:03:13.269Z,11.57
2018-05-11T04:05:52.602Z,14.00
2018-05-11T04:08:32.081Z,11.00
2018-05-11T04:11:00.369Z,12.30
2018-05-11T04:13:27.917Z,12.37
2018-05-11T04:15:56.202Z,13.43
2018-05-11T04:18:24.585Z,14.13
2018-05-11T04:20:52.102Z,13.30
2018-05-11T04:23:19.650Z,13.10
2018-05-11T04:25:47.176Z,13.70
2018-05-11T04:28:14.701Z,13.77
2018-05-11T04:30:42.985Z,14.03
2018-05-11T04:33:11.274Z,13.17
2018-05-11T04:35:38.786Z,13.57
2018-05-11T04:38:06.302Z,13.33
2018-05-11T04:40:33.939Z,12.70
2018-05-11T04:43:02.224Z,11.80
2018-05-11T04:45:29.753Z,13.10
2018-05-11T04:47:57.275Z,13.50
2018-05-11T04:50:24.789Z,12.43
2018-05-11T04:52:53.075Z,12.03
2018-05-11T04:55:21.349Z,12.67
2018-05-11T04:57:49.646Z,12.77
2018-05-11T05:00:17.172Z,14.27
2018-05-11T05:02:45.458Z,14.27
2018-05-11T05:05:13.745Z,17.30
2018-05-11T05:07:41.265Z,17.43
2018-05-11T05:10:08.790Z,15.13
2018-05-11T05:12:36.305Z,14.70
2018-05-11T05:15:04.590Z,16.50
2018-05-11T05:17:32.878Z,15.00
2018-05-11T05:20:00.397Z,15.80
2018-05-11T05:22:27.914Z,15.63
2018-05-11T05:24:55.429Z,15.47
2018-05-11T05:27:23.717Z,17.60
2018-05-11T05:29:52.005Z,17.53
2018-05-11T05:32:19.513Z,18.67
2018-05-11T05:34:47.031Z,18.80
2018-05-11T05:37:14.561Z,18.10
2018-05-11T05:39:42.847Z,16.70
2018-05-11T05:42:11.133Z,15.40
2018-05-11T05:44:38.646Z,14.23
2018-05-11T05:47:06.169Z,13.37
2018-05-11T05:49:33.689Z,13.50
2018-05-11T05:52:01.985Z,13.80
2018-05-11T05:54:29.518Z,14.70
2018-05-11T05:56:57.801Z,14.53
2018-05-11T05:59:26.105Z,13.50
2018-05-11T06:01:53.618Z,16.30
2018-05-11T06:04:21.134Z,15.20
2018-05-11T06:06:48.658Z,15.07
2018-05-11T06:09:16.941Z,15.13
2018-05-11T06:11:45.245Z,14.47
2018-05-11T06:14:12.754Z,13.07
2018-05-11T06:16:40.310Z,12.27
2018-05-11T06:19:07.833Z,10.37
2018-05-11T06:21:35.344Z,10.60
2018-05-11T06:24:03.626Z,11.60
2018-05-11T06:26:31.914Z,12.67
2018-05-11T06:29:00.193Z,12.33
2018-05-11T06:31:27.710Z,12.23
2018-05-11T06:33:55.230Z,15.70
2018-05-11T06:36:22.740Z,17.07
2018-05-11T06:38:50.280Z,17.10
2018-05-11T06:41:17.793Z,16.30
2018-05-11T06:43:45.333Z,17.60
2018-05-11T06:46:13.621Z,17.50
2018-05-11T06:48:41.902Z,16.50
2018-05-11T06:51:09.413Z,16.70
2018-05-11T06:53:37.039Z,17.33
2018-05-11T06:56:04.554Z,17.20
2018-05-11T06:58:32.845Z,16.83
2018-05-11T07:01:01.145Z,18.63
2018-05-11T07:03:28.652Z,18.20
2018-05-11T07:05:56.186Z,16.40
2018-05-11T07:08:23.713Z,16.77
2018-05-11T07:10:51.233Z,16.77
2018-05-11T07:13:18.751Z,21.40
2018-05-11T07:15:46.261Z,17.10
2018-05-11T07:18:14.667Z,18.07
2018-05-11T07:20:42.113Z,17.80
2018-05-11T07:23:10.392Z,17.27
2018-05-11T07:25:37.977Z,15.60
2018-05-11T07:28:06.224Z,17.50
2018-05-11T07:30:34.517Z,15.47
2018-05-11T07:33:02.063Z,15.93
2018-05-11T07:35:29.581Z,15.77
2018-05-11T07:37:57.100Z,15.10
2018-05-11T07:40:24.629Z,14.47
2018-05-11T07:42:52.913Z,14.83
2018-05-11T07:45:21.231Z,15.03
2018-05-11T07:47:48.749Z,15.10
2018-05-11T07:50:17.029Z,15.83
2018-05-11T07:52:45.318Z,14.23
2018-05-11T07:55:12.833Z,14.77
2018-05-11T07:57:40.347Z,15.17
2018-05-11T08:00:07.870Z,14.73
2018-05-11T08:02:36.157Z,16.53
2018-05-11T08:05:03.690Z,14.87
2018-05-11T08:07:31.206Z,16.20
2018-05-11T08:09:58.730Z,14.90
2018-05-11T08:12:27.009Z,15.93
2018-05-11T08:14:55.311Z,15.33
2018-05-11T08:17:22.833Z,17.00
2018-05-11T08:19:51.117Z,15.20
2018-05-11T08:22:19.401Z,15.63
2018-05-11T08:24:47.690Z,15.23
2018-05-11T08:27:15.217Z,16.03
2018-05-11T08:29:43.513Z,15.40
2018-05-11T08:32:11.805Z,17.00
2018-05-11T08:34:39.322Z,16.60
2018-05-11T08:37:07.549Z,16.37
2018-05-11T08:39:35.082Z,16.20
2018-05-11T08:42:03.382Z,17.30
2018-05-11T08:44:30.906Z,16.20
2018-05-11T08:46:59.197Z,16.30
2018-05-11T08:49:27.481Z,15.97
2018-05-11T08:51:55.051Z,15.37
2018-05-11T08:54:23.302Z,15.70
2018-05-11T08:56:51.590Z,16.60
2018-05-11T08:59:19.897Z,17.23
2018-05-11T09:01:47.406Z,17.57
2018-05-11T09:04:15.680Z,17.27
2018-05-11T09:06:43.973Z,17.03
2018-05-11T09:09:12.254Z,16.60
2018-05-11T09:11:39.777Z,18.00
2018-05-11T09:14:07.294Z,17.77
2018-05-11T09:16:34.821Z,18.67
2018-05-11T09:19:03.106Z,17.50
2018-05-11T09:21:30.736Z,17.10
2018-05-11T09:23:58.928Z,16.83
2018-05-11T09:26:27.205Z,18.33
2018-05-11T09:28:55.493Z,18.63
2018-05-11T09:31:23.773Z,19.53
2018-05-11T09:33:51.295Z,24.43
2018-05-11T09:36:20.314Z,22.93
2018-05-11T09:38:48.598Z,19.03
2018-05-11T09:41:16.881Z,19.40
2018-05-11T09:43:45.170Z,19.13
2018-05-11T09:46:12.681Z,17.93
2018-05-11T09:48:40.190Z,18.67
2018-05-11T09:51:07.706Z,17.03
2018-05-11T09:53:36.733Z,16.67
2018-05-11T09:56:04.278Z,16.10
2018-05-11T09:58:32.557Z,16.87
2018-05-11T10:01:00.834Z,16.57
2018-05-11T10:03:29.113Z,17.07
2018-05-11T10:05:57.401Z,17.70
2018-05-11T10:08:24.921Z,17.67
2018-05-11T10:10:52.445Z,18.67
2018-05-11T10:13:19.949Z,18.00
2018-05-11T10:15:48.233Z,15.93
2018-05-11T10:18:16.518Z,16.20
2018-05-11T10:20:44.877Z,16.23
2018-05-11T10:23:12.333Z,16.80
2018-05-11T10:25:39.845Z,17.77
2018-05-11T10:28:07.357Z,18.10
2018-05-11T10:30:35.633Z,18.00
2018-05-11T10:33:03.918Z,16.17
2018-05-11T10:35:32.201Z,17.80
2018-05-11T10:38:00.479Z,17.50
2018-05-11T10:40:28.761Z,19.07
2018-05-11T10:42:56.278Z,20.40
2018-05-11T10:45:24.562Z,18.67
2018-05-11T10:47:52.082Z,17.53
2018-05-11T10:50:19.604Z,19.90
2018-05-11T10:52:47.889Z,18.37
2018-05-11T10:55:15.402Z,17.70
2018-05-11T10:57:42.922Z,17.50
2018-05-11T11:00:10.437Z,19.73
2018-05-11T11:02:37.953Z,18.90
2018-05-11T11:05:05.458Z,18.60
2018-05-11T11:07:33.745Z,20.00
2018-05-11T11:10:02.023Z,17.10
2018-05-11T11:12:30.297Z,19.27
2018-05-11T11:14:58.582Z,19.80
2018-05-11T11:17:26.861Z,20.07
2018-05-11T11:19:54.371Z,18.57
2018-05-11T11:22:21.902Z,17.70
2018-05-11T11:24:49.414Z,19.07
2018-05-11T11:27:16.926Z,18.93
2018-05-11T11:29:44.449Z,19.13
2018-05-11T11:32:12.738Z,19.57
2018-05-11T11:34:40.285Z,18.63
2018-05-11T11:37:07.772Z,18.70
2018-05-11T11:39:35.286Z,20.77
2018-05-11T11:42:03.638Z,18.90
2018-05-11T11:44:31.861Z,18.40
2018-05-11T11:46:59.377Z,18.80
2018-05-11T11:49:26.906Z,18.13
2018-05-11T11:51:54.413Z,17.93
2018-05-11T11:54:21.923Z,19.60
2018-05-11T11:56:49.439Z,18.23
2018-05-11T11:59:17.717Z,18.97
2018-05-11T12:01:46.005Z,16.80
2018-05-11T12:04:14.284Z,17.30
2018-05-11T12:06:41.832Z,18.23
2018-05-11T12:09:10.119Z,20.47
2018-05-11T12:11:37.634Z,19.80
2018-05-11T12:14:05.170Z,18.30
2018-05-11T12:16:32.677Z,18.10
2018-05-11T12:19:00.957Z,16.80
2018-05-11T12:21:29.249Z,15.97
2018-05-11T12:23:56.800Z,18.77
2018-05-11T12:26:25.156Z,18.53
2018-05-11T12:28:52.620Z,16.67
2018-05-11T12:31:20.898Z,15.40
2018-05-11T12:33:48.414Z,15.97
2018-05-11T12:36:15.933Z,15.10
2018-05-11T12:38:44.218Z,15.40
2018-05-11T12:41:11.817Z,15.47
2018-05-11T12:43:39.273Z,14.00
2018-05-11T12:46:06.781Z,14.97
2018-05-11T12:48:35.059Z,15.07
2018-05-11T12:51:03.354Z,15.70
2018-05-11T12:53:30.869Z,14.37
2018-05-11T12:55:58.386Z,13.90
2018-05-11T12:58:25.901Z,16.80
2018-05-11T13:00:54.189Z,14.30
2018-05-11T13:03:22.468Z,29.57
2018-05-11T13:05:50.766Z,13.30
2018-05-11T13:08:18.278Z,15.50
2018-05-11T13:10:45.793Z,14.90
2018-05-11T13:13:13.310Z,14.90
2018-05-11T13:15:41.598Z,15.10
2018-05-11T13:18:09.877Z,15.77
2018-05-11T13:20:38.186Z,16.20
2018-05-11T13:23:05.702Z,13.23
2018-05-11T13:25:33.985Z,14.47
2018-05-11T13:28:02.262Z,14.20
2018-05-11T13:30:30.585Z,13.13
2018-05-11T13:39:44.947Z,12.00
2018-05-11T13:49:34.558Z,10.90
2018-05-11T13:52:02.837Z,10.40
2018-05-11T13:54:31.117Z,10.70
2018-05-11T13:56:59.401Z,13.77
2018-05-11T13:59:26.933Z,10.60
2018-05-11T14:01:54.445Z,11.63
2018-05-11T14:04:21.961Z,9.97
2018-05-11T14:06:50.245Z,9.40
2018-05-11T14:09:18.525Z,11.93
2018-05-11T14:11:46.815Z,11.50
2018-05-11T14:14:14.354Z,10.70
2018-05-11T14:16:42.642Z,10.57
2018-05-11T14:19:10.154Z,11.20
2018-05-11T14:21:37.676Z,12.37
2018-05-11T14:24:05.195Z,10.50
2018-05-11T14:26:33.499Z,12.50
2018-05-11T14:29:01.087Z,10.47
2018-05-11T14:31:28.533Z,10.00
2018-05-11T14:33:56.041Z,10.20
2018-05-11T14:36:23.554Z,10.37
2018-05-11T14:38:51.065Z,10.53
2018-05-11T14:41:19.351Z,12.90
2018-05-11T14:43:47.723Z,11.90
2018-05-11T14:46:16.022Z,12.90
2018-05-11T14:48:43.534Z,10.63
2018-05-11T14:51:11.047Z,10.20
2018-05-11T14:53:38.562Z,9.20
2018-05-11T14:56:06.082Z,9.90
2018-05-11T14:58:33.587Z,8.40
2018-05-11T15:01:01.093Z,8.60
2018-05-11T15:03:28.602Z,8.40
2018-05-11T15:05:56.114Z,7.53
2018-05-11T15:08:23.627Z,7.07
2018-05-11T15:10:51.909Z,7.80
2018-05-11T15:13:20.177Z,7.10
2018-05-11T15:15:48.445Z,5.60
2018-05-11T15:18:15.991Z,6.60
2018-05-11T15:20:43.507Z,6.00
2018-05-11T15:23:11.020Z,6.23
2018-05-11T15:25:38.524Z,5.67
2018-05-11T15:28:06.050Z,7.10
2018-05-11T15:30:34.325Z,6.83
2018-05-11T15:33:02.602Z,7.60
2018-05-11T15:35:30.879Z,7.90
2018-05-11T15:37:59.165Z,7.73
2018-05-11T15:40:27.461Z,9.07
2018-05-11T15:42:54.991Z,10.20
2018-05-11T15:45:23.273Z,10.70
2018-05-11T15:47:51.553Z,10.47
2018-05-11T15:50:19.842Z,11.00
2018-05-11T15:52:47.377Z,9.57
2018-05-11T15:55:15.661Z,13.53
2018-05-11T15:57:43.942Z,14.77
2018-05-11T16:00:12.225Z,11.50
2018-05-11T16:02:40.499Z,17.30
2018-05-11T16:05:08.771Z,9.63
2018-05-11T16:07:37.053Z,7.13
2018-05-11T16:10:05.339Z,17.30
2018-05-11T16:12:32.928Z,5.70
2018-05-11T16:15:00.394Z,22.27
2018-05-11T16:17:27.901Z,5.50
2018-05-11T16:19:56.172Z,5.40
2018-05-11T16:22:24.454Z,5.43
2018-05-11T16:24:52.728Z,4.17
2018-05-11T16:27:21.002Z,4.30
2018-05-11T16:29:49.290Z,4.57
2018-05-11T16:32:17.569Z,4.87
2018-05-11T16:34:45.077Z,3.90
2018-05-11T16:37:12.618Z,4.17
2018-05-11T16:39:40.135Z,3.97
2018-05-11T16:42:08.401Z,4.90
2018-05-11T16:44:36.691Z,5.10
2018-05-11T16:47:04.963Z,4.63
2018-05-11T16:49:33.249Z,5.10
2018-05-11T16:52:01.520Z,5.20
2018-05-11T16:54:29.049Z,5.03
2018-05-11T16:56:56.561Z,6.47
2018-05-11T16:59:24.074Z,6.97
2018-05-11T17:01:51.586Z,6.50
2018-05-11T17:04:19.093Z,7.30
2018-05-11T17:06:46.607Z,7.10
2018-05-11T17:09:14.114Z,7.13
2018-05-11T17:11:41.649Z,6.90
2018-05-11T17:14:09.153Z,7.13
2018-05-11T17:16:37.434Z,7.53
2018-05-11T17:19:05.002Z,8.20
2018-05-11T17:21:32.482Z,7.67
2018-05-11T17:23:59.993Z,7.50
2018-05-11T17:26:28.275Z,7.50
2018-05-11T17:28:56.546Z,6.67
2018-05-11T17:31:24.825Z,7.20
2018-05-11T17:33:53.113Z,7.00
2018-05-11T17:36:20.620Z,6.50
2018-05-11T17:38:48.125Z,7.43
2018-05-11T17:41:16.402Z,7.67
2018-05-11T17:43:44.685Z,7.00
2018-05-11T17:46:12.229Z,8.80
2018-05-11T17:48:40.591Z,7.63
2018-05-11T17:51:08.029Z,7.60
2018-05-11T17:53:35.541Z,7.83
2018-05-11T17:56:03.046Z,8.07
2018-05-11T17:58:30.559Z,8.57
2018-05-11T18:00:58.078Z,7.60
2018-05-11T18:03:25.583Z,8.90
2018-05-11T18:05:53.102Z,8.30
2018-05-11T18:08:20.610Z,7.67
2018-05-11T18:10:48.121Z,8.60
2018-05-11T18:13:16.401Z,8.67
2018-05-11T18:15:43.912Z,8.53
2018-05-11T18:18:11.418Z,8.73
2018-05-11T18:20:39.694Z,9.43
2018-05-11T18:23:07.206Z,8.43
2018-05-11T18:25:34.711Z,8.70
2018-05-11T18:28:02.999Z,9.43
2018-05-11T18:30:31.279Z,8.23
2018-05-11T18:32:59.549Z,9.30
2018-05-11T18:35:27.837Z,9.80
2018-05-11T18:37:56.122Z,10.33
2018-05-11T18:40:23.630Z,9.53
2018-05-11T18:42:51.150Z,10.70
2018-05-11T18:45:18.675Z,9.40
2018-05-11T18:47:46.193Z,9.87
2018-05-11T18:50:13.705Z,9.20
2018-05-11T18:52:42.068Z,10.10
2018-05-11T18:55:09.514Z,9.37
2018-05-11T18:57:37.037Z,9.40
2018-05-11T19:00:04.689Z,16.10
2018-05-11T19:02:32.219Z,10.20
2018-05-11T19:05:00.493Z,10.40
2018-05-11T19:07:28.765Z,9.47
2018-05-11T19:09:57.045Z,9.73
2018-05-11T19:12:25.318Z,8.80
2018-05-11T19:14:53.589Z,9.13
2018-05-11T19:17:21.873Z,11.63
2018-05-11T19:19:50.158Z,12.80
2018-05-11T19:22:18.467Z,9.93
2018-05-11T19:24:45.982Z,9.77
2018-05-11T19:27:14.262Z,9.93
2018-05-11T19:29:42.550Z,14.00
2018-05-11T19:32:10.081Z,14.27
2018-05-11T19:34:37.609Z,11.33
2018-05-11T19:37:05.135Z,10.50
2018-05-11T19:39:32.641Z,10.77
2018-05-11T19:42:00.263Z,10.40
2018-05-11T19:44:27.793Z,10.10
2018-05-11T19:46:56.085Z,11.10
2018-05-11T19:49:23.614Z,17.83
2018-05-11T19:51:51.897Z,12.30
2018-05-11T19:54:20.185Z,11.93
2018-05-11T19:56:48.457Z,10.30
2018-05-11T19:59:16.738Z,9.67
2018-05-11T20:01:45.018Z,12.53
2018-05-11T20:04:13.302Z,14.23
2018-05-11T20:06:40.822Z,18.00
2018-05-11T20:09:09.111Z,9.97
2018-05-11T20:11:36.633Z,11.83
2018-05-11T20:14:04.143Z,10.70
2018-05-11T20:16:32.433Z,11.03
2018-05-11T20:18:59.942Z,11.43
2018-05-11T20:21:27.460Z,12.20
2018-05-11T20:23:54.973Z,11.50
2018-05-11T20:26:23.253Z,10.50
2018-05-11T20:28:50.757Z,12.53
2018-05-11T20:31:18.278Z,11.20
2018-05-11T20:33:46.563Z,11.93
2018-05-11T20:36:14.839Z,12.90
2018-05-11T20:38:43.134Z,11.80
2018-05-11T20:41:10.650Z,11.20
2018-05-11T20:43:38.931Z,9.73
2018-05-11T20:46:07.205Z,9.60
2018-05-11T20:48:35.493Z,10.73
2018-05-11T20:51:03.122Z,11.20
2018-05-11T20:53:30.648Z,10.53
2018-05-11T20:55:58.158Z,9.47
2018-05-11T20:58:26.439Z,9.57
2018-05-11T21:00:54.723Z,10.63
2018-05-11T21:03:22.233Z,11.20
2018-05-11T21:05:49.759Z,10.73
2018-05-11T21:08:18.039Z,10.10
2018-05-11T21:10:46.319Z,11.13
2018-05-11T21:13:13.834Z,10.60
2018-05-11T21:15:41.352Z,10.00
2018-05-11T21:18:08.873Z,10.63
2018-05-11T21:20:37.150Z,10.37
2018-05-11T21:23:05.434Z,10.63
2018-05-11T21:25:33.714Z,11.03
2018-05-11T21:28:01.999Z,10.47
2018-05-11T21:30:29.521Z,11.30
2018-05-11T21:32:57.042Z,10.30
2018-05-11T21:35:24.563Z,12.13
2018-05-11T21:37:52.865Z,11.53
2018-05-11T21:40:20.378Z,11.00
2018-05-11T21:42:47.893Z,11.50
2018-05-11T21:45:15.405Z,11.27
2018-05-11T21:47:43.717Z,11.83
2018-05-11T21:50:11.249Z,11.10
2018-05-11T21:52:39.549Z,11.50
2018-05-11T21:55:07.057Z,11.70
2018-05-11T21:57:34.571Z,12.40
2018-05-11T22:00:02.117Z,12.40
2018-05-11T22:02:30.392Z,11.33
2018-05-11T22:04:58.710Z,21.53
2018-05-11T22:07:26.224Z,20.07
2018-05-11T22:09:54.509Z,12.90
2018-05-11T22:12:22.030Z,12.77
2018-05-11T22:14:49.541Z,13.17
2018-05-11T22:17:17.069Z,13.77
2018-05-11T22:19:45.349Z,30.43
2018-05-11T22:22:13.629Z,29.03
2018-05-11T22:24:41.918Z,27.80
2018-05-11T22:27:09.425Z,28.43
2018-05-11T22:29:36.946Z,27.00
2018-05-11T22:32:04.462Z,12.50
2018-05-11T22:34:32.750Z,14.43
2018-05-11T22:37:01.030Z,14.20
2018-05-11T22:39:29.320Z,13.90
2018-05-11T22:41:56.901Z,13.40
2018-05-11T22:44:25.152Z,27.23
2018-05-11T22:46:52.665Z,23.80
2018-05-11T22:49:20.183Z,14.03
2018-05-11T22:51:47.711Z,13.27
2018-05-11T22:54:16.001Z,13.37
2018-05-11T22:56:44.274Z,14.10
2018-05-11T22:59:12.561Z,14.60
2018-05-11T23:01:40.077Z,14.73
2018-05-11T23:04:07.605Z,15.30
2018-05-11T23:06:35.122Z,15.53
2018-05-11T23:09:03.409Z,16.23
2018-05-11T23:11:30.930Z,16.23
2018-05-11T23:13:58.445Z,15.60
2018-05-11T23:16:25.982Z,14.27
2018-05-11T23:18:54.257Z,16.20
2018-05-11T23:21:22.553Z,15.27
2018-05-11T23:23:50.069Z,15.23
2018-05-11T23:26:18.353Z,14.10
2018-05-11T23:28:46.640Z,15.83
2018-05-11T23:31:14.921Z,15.40
2018-05-11T23:33:43.214Z,14.77
2018-05-11T23:36:10.733Z,14.00
2018-05-11T23:38:38.257Z,15.63
2018-05-11T23:41:05.777Z,15.50
2018-05-11T23:43:34.075Z,15.67
2018-05-11T23:46:01.581Z,14.47
2018-05-11T23:48:29.097Z,15.40
2018-05-11T23:50:56.729Z,14.90
2018-05-11T23:53:25.010Z,15.80
2018-05-11T23:55:52.533Z,16.60
2018-05-11T23:58:20.044Z,15.80
